createdAt,value
2022-12-22T07:51:01.144Z,2231.0
2022-12-22T07:52:01.346Z,2360.3
2022-12-22T07:53:01.114Z,2489.7
2022-12-22T07:54:01.115Z,2619.0
2022-12-22T07:55:01.139Z,2709.6
2022-12-22T07:56:01.114Z,2800.2
2022-12-22T07:57:01.944Z,2854.9
2022-12-22T07:58:01.137Z,2909.7
2022-12-22T07:59:01.112Z,2964.4
2022-12-22T08:00:01.173Z,3098.5
2022-12-22T08:01:01.132Z,3232.5
2022-12-22T08:02:01.436Z,3315.5
2022-12-22T08:03:01.584Z,3398.5
2022-12-22T08:04:01.183Z,3481.5
2022-12-22T08:05:01.188Z,3464.9
2022-12-22T08:06:01.120Z,3448.3
2022-12-22T08:07:01.397Z,3604.3
2022-12-22T08:08:01.206Z,3760.3
2022-12-22T08:09:01.221Z,3916.3
2022-12-22T08:10:01.599Z,4196.9
2022-12-22T08:11:01.141Z,4477.4
2022-12-22T08:12:01.974Z,4744.9
2022-12-22T08:13:01.138Z,5012.5
2022-12-22T08:14:02.030Z,5280.0
2022-12-22T08:15:01.160Z,5598.6
2022-12-22T08:16:01.256Z,5917.2
2022-12-22T08:17:02.007Z,6140.5
2022-12-22T08:18:01.109Z,6363.9
2022-12-22T08:19:01.120Z,6587.2
2022-12-22T08:20:01.164Z,6742.1
2022-12-22T08:21:01.126Z,6896.9
2022-12-22T08:23:01.418Z,6869.5
2022-12-22T08:24:01.108Z,6842.1
2022-12-22T08:25:01.229Z,6796.6
2022-12-22T08:26:01.113Z,6629.3
2022-12-22T08:27:01.206Z,6537.7
2022-12-22T08:28:01.320Z,6473.3
2022-12-22T08:29:01.115Z,6408.9
2022-12-22T08:30:01.162Z,6428.0
2022-12-22T08:31:01.124Z,6294.9
2022-12-22T08:32:03.136Z,6158.7
2022-12-22T08:33:01.316Z,6132.7
2022-12-22T08:34:01.113Z,6106.7
2022-12-22T08:35:01.154Z,6051.7
2022-12-22T08:36:05.969Z,6121.5
2022-12-22T08:37:01.737Z,6200.0
2022-12-22T08:38:01.326Z,6317.5
2022-12-22T08:39:01.130Z,6435.1
2022-12-22T08:40:01.132Z,6521.3
2022-12-22T08:41:01.106Z,6607.5
2022-12-22T08:42:01.993Z,6631.2
2022-12-22T08:43:01.314Z,6654.9
2022-12-22T08:44:01.112Z,6678.7
2022-12-22T08:45:01.184Z,6562.3
2022-12-22T08:46:01.117Z,6446.0
2022-12-22T08:47:01.251Z,6420.1
2022-12-22T08:48:01.359Z,6394.1
2022-12-22T08:49:01.105Z,6368.2
2022-12-22T08:50:01.165Z,6305.7
2022-12-22T08:51:01.106Z,6243.1
2022-12-22T08:52:01.128Z,6257.7
2022-12-22T08:53:01.326Z,6272.3
2022-12-22T08:54:05.708Z,6286.9
2022-12-22T08:55:01.165Z,6332.3
2022-12-22T08:56:01.203Z,6377.7
2022-12-22T08:57:06.849Z,6418.1
2022-12-22T08:58:01.322Z,6458.4
2022-12-22T08:59:01.116Z,6498.7
2022-12-22T09:00:01.147Z,6560.5
2022-12-22T09:01:01.247Z,6622.3
2022-12-22T09:02:01.261Z,6579.5
2022-12-22T09:03:01.470Z,6536.6
2022-12-22T09:04:01.125Z,6493.7
2022-12-22T09:05:01.154Z,6439.5
2022-12-22T09:06:01.113Z,6385.3
2022-12-22T09:07:01.129Z,6265.8
2022-12-22T09:08:16.133Z,6146.3
2022-12-22T09:09:06.368Z,6026.7
2022-12-22T09:10:01.359Z,6118.7
2022-12-22T09:11:01.141Z,6210.7
2022-12-22T09:12:02.029Z,6173.4
2022-12-22T09:13:01.371Z,6136.1
2022-12-22T09:14:01.377Z,6098.7
2022-12-22T09:15:01.433Z,6342.1
2022-12-22T09:16:01.192Z,6585.4
2022-12-22T09:17:01.261Z,7291.3
2022-12-22T09:18:01.128Z,7997.3
2022-12-22T09:19:01.506Z,8703.2
2022-12-22T09:20:01.186Z,9910.4
2022-12-22T09:21:01.125Z,11117.6
2022-12-22T09:22:01.207Z,12339.9
2022-12-22T09:24:01.503Z,13562.3
2022-12-22T09:25:01.127Z,14495.1
2022-12-22T09:26:01.124Z,15235.0
2022-12-22T09:27:01.247Z,15830.9
2022-12-22T09:28:01.890Z,16548.0
2022-12-22T09:29:01.472Z,17265.1
2022-12-22T09:30:01.161Z,17848.5
2022-12-22T09:31:01.112Z,18186.4
2022-12-22T09:32:01.164Z,18410.9
2022-12-22T09:33:01.115Z,18190.3
2022-12-22T09:34:01.371Z,17969.7
2022-12-22T09:35:01.148Z,17768.8
2022-12-22T09:36:01.130Z,17143.5
2022-12-22T09:37:01.122Z,16467.4
2022-12-22T09:38:01.122Z,15755.7
2022-12-22T09:39:02.337Z,15044.1
2022-12-22T09:40:01.212Z,14687.1
2022-12-22T09:41:01.180Z,14330.1
2022-12-22T09:42:01.113Z,14316.4
2022-12-22T09:43:06.888Z,14302.7
2022-12-22T09:44:01.502Z,14289.1
2022-12-22T09:45:01.139Z,14687.7
2022-12-22T09:46:01.151Z,15086.3
2022-12-22T09:47:06.103Z,15677.9
2022-12-22T09:48:01.117Z,16269.6
2022-12-22T09:49:01.318Z,16861.3
2022-12-22T09:50:01.172Z,17278.8
2022-12-22T09:51:01.111Z,17696.3
2022-12-22T09:52:01.114Z,18179.4
2022-12-22T09:53:01.114Z,18662.5
2022-12-22T09:54:02.347Z,19145.5
2022-12-22T09:55:02.167Z,19607.2
2022-12-22T09:56:01.112Z,20068.9
2022-12-22T09:57:01.134Z,21243.9
2022-12-22T09:58:02.375Z,22419.0
2022-12-22T09:59:01.529Z,23594.1
2022-12-22T10:00:01.178Z,24234.3
2022-12-22T10:01:01.246Z,24874.6
2022-12-22T10:02:01.236Z,25180.6
2022-12-22T10:03:01.161Z,25486.6
2022-12-22T10:04:02.818Z,25792.6
2022-12-22T10:05:01.170Z,26577.2
2022-12-22T10:06:01.108Z,27361.8
2022-12-22T10:07:01.121Z,27714.7
2022-12-22T10:08:06.910Z,28067.5
2022-12-22T10:09:05.055Z,28420.4
2022-12-22T10:10:01.356Z,28849.7
2022-12-22T10:11:01.119Z,29278.9
2022-12-22T10:12:01.131Z,28595.3
2022-12-22T10:13:01.133Z,27911.7
2022-12-22T10:14:01.811Z,27228.1
2022-12-22T10:15:01.190Z,26323.6
2022-12-22T10:16:01.129Z,25419.1
2022-12-22T10:17:01.175Z,25311.8
2022-12-22T10:18:01.131Z,25204.5
2022-12-22T10:19:06.327Z,25097.3
2022-12-22T10:20:01.120Z,26053.1
2022-12-22T10:21:01.118Z,27008.9
2022-12-22T10:22:01.114Z,29683.2
2022-12-22T10:23:06.765Z,32357.5
2022-12-22T10:24:02.340Z,35031.9
2022-12-22T10:25:01.394Z,37312.4
2022-12-22T10:26:29.481Z,39592.9
2022-12-22T10:27:06.104Z,41661.9
2022-12-22T10:28:01.133Z,43730.8
2022-12-22T10:30:01.302Z,45576.4
2022-12-22T10:31:01.127Z,47899.1
2022-12-22T10:32:02.212Z,51130.5
2022-12-22T10:33:01.105Z,53819.1
2022-12-22T10:34:01.111Z,56507.8
2022-12-22T10:35:01.343Z,57602.4
2022-12-22T10:36:01.120Z,57309.8
2022-12-22T10:37:02.218Z,55792.5
2022-12-22T10:38:01.105Z,52973.7
2022-12-22T10:39:02.368Z,50154.9
2022-12-22T10:40:01.384Z,48585.6
2022-12-22T10:41:02.559Z,47290.0
2022-12-22T10:42:01.118Z,46465.2
2022-12-22T10:43:01.102Z,46052.1
2022-12-22T10:44:01.133Z,45639.1
2022-12-22T10:45:01.309Z,44736.7
2022-12-22T10:46:01.201Z,43834.4
2022-12-22T10:47:01.130Z,41785.0
2022-12-22T10:48:01.103Z,39735.6
2022-12-22T10:49:01.128Z,37686.2
2022-12-22T10:50:02.364Z,36196.5
2022-12-22T10:51:02.137Z,34706.7
2022-12-22T10:52:01.108Z,33951.3
2022-12-22T10:53:01.109Z,33195.9
2022-12-22T10:54:06.807Z,32440.5
2022-12-22T10:55:01.401Z,30692.9
2022-12-22T10:56:01.112Z,28945.2
2022-12-22T10:57:01.115Z,27330.7
2022-12-22T10:58:05.411Z,25716.3
2022-12-22T10:59:01.128Z,24101.8
2022-12-22T11:00:02.721Z,23523.1
2022-12-22T11:01:01.149Z,22944.5
2022-12-22T11:02:01.329Z,22744.3
2022-12-22T11:03:01.525Z,22544.1
2022-12-22T11:04:08.252Z,22343.9
2022-12-22T11:05:01.593Z,22770.5
2022-12-22T11:06:01.126Z,23197.2
2022-12-22T11:07:02.147Z,24026.7
2022-12-22T11:08:01.120Z,24856.1
2022-12-22T11:09:23.934Z,25685.6
2022-12-22T11:10:01.474Z,26157.0
2022-12-22T11:11:01.138Z,26628.4
2022-12-22T11:12:01.133Z,27140.2
2022-12-22T11:13:01.122Z,27652.0
2022-12-22T11:14:01.129Z,28163.8
2022-12-22T11:15:01.356Z,28474.7
2022-12-22T11:16:01.125Z,28785.5
2022-12-22T11:17:01.299Z,28939.1
2022-12-22T11:18:01.110Z,29092.6
2022-12-22T11:19:01.756Z,29246.1
2022-12-22T11:20:01.342Z,30382.0
2022-12-22T11:21:01.119Z,31517.9
2022-12-22T11:22:02.220Z,31861.9
2022-12-22T11:23:01.116Z,32205.9
2022-12-22T11:24:01.134Z,32549.9
2022-12-22T11:25:01.346Z,33310.1
2022-12-22T11:27:01.108Z,34909.9
2022-12-22T11:28:01.114Z,35865.4
2022-12-22T11:29:01.117Z,36820.9
2022-12-22T11:30:01.138Z,37738.9
2022-12-22T11:31:01.367Z,38534.7
2022-12-22T11:32:01.117Z,39886.4
2022-12-22T11:33:01.364Z,41255.3
2022-12-22T11:34:01.743Z,42624.1
2022-12-22T11:35:01.156Z,44645.8
2022-12-22T11:36:01.338Z,46092.7
2022-12-22T11:37:01.106Z,47381.2
2022-12-22T11:38:01.130Z,49549.2
2022-12-22T11:39:01.784Z,51717.2
2022-12-22T11:40:01.154Z,53326.9
2022-12-22T11:41:01.381Z,54621.3
2022-12-22T11:42:01.137Z,53729.9
2022-12-22T11:43:01.148Z,52838.6
2022-12-22T11:44:01.137Z,51947.3
2022-12-22T11:45:01.139Z,50588.6
2022-12-22T11:46:01.333Z,49229.9
2022-12-22T11:47:01.103Z,46545.5
2022-12-22T11:48:01.109Z,43861.0
2022-12-22T11:49:01.141Z,41176.5
2022-12-22T11:50:46.173Z,38640.3
2022-12-22T11:51:06.773Z,36104.0
2022-12-22T11:52:01.101Z,34432.3
2022-12-22T11:53:01.209Z,32760.7
2022-12-22T11:54:12.506Z,31089.0
2022-12-22T11:55:01.164Z,29343.5
2022-12-22T11:56:01.360Z,27597.9
2022-12-22T11:57:01.189Z,26948.6
2022-12-22T11:58:01.140Z,26299.3
2022-12-22T11:59:02.145Z,25649.9
2022-12-22T12:00:01.136Z,25522.2
2022-12-22T12:01:16.483Z,25394.5
2022-12-22T12:02:01.214Z,26409.2
2022-12-22T12:03:01.149Z,27423.9
2022-12-22T12:04:01.175Z,28438.7
2022-12-22T12:05:01.103Z,30364.4
2022-12-22T12:06:01.943Z,32290.1
2022-12-22T12:07:01.222Z,32710.8
2022-12-22T12:08:01.112Z,33131.5
2022-12-22T12:09:02.769Z,33552.1
2022-12-22T12:10:01.105Z,35096.7
2022-12-22T12:11:01.304Z,36641.2
2022-12-22T12:12:01.111Z,39427.5
2022-12-22T12:13:01.106Z,42213.9
2022-12-22T12:14:01.182Z,45000.2
2022-12-22T12:15:01.158Z,47532.7
2022-12-22T12:16:01.498Z,50065.1
2022-12-22T12:17:01.121Z,52251.3
2022-12-22T12:18:01.174Z,54437.4
2022-12-22T12:19:01.182Z,56623.5
2022-12-22T12:20:01.260Z,57308.5
2022-12-22T12:21:01.429Z,57993.4
2022-12-22T12:22:04.487Z,59477.1
2022-12-22T12:23:01.111Z,60960.9
2022-12-22T12:24:02.600Z,62444.6
2022-12-22T12:25:01.130Z,63436.6
2022-12-22T12:26:06.326Z,64428.6
2022-12-22T12:27:01.113Z,64176.7
2022-12-22T12:28:01.113Z,63924.7
2022-12-22T12:29:01.125Z,63672.8
2022-12-22T12:30:36.062Z,63909.8
2022-12-22T12:31:01.326Z,64146.8
2022-12-22T12:32:01.263Z,64357.6
2022-12-22T12:33:01.112Z,64568.4
2022-12-22T12:35:01.105Z,64779.2
2022-12-22T12:43:01.191Z,65031.1
2022-12-22T12:44:07.011Z,65283.1
2022-12-22T12:45:06.122Z,65066.0
2022-12-22T12:46:01.107Z,64597.0
2022-12-22T12:47:01.155Z,62924.7
2022-12-22T12:48:01.107Z,61252.3
2022-12-22T12:49:01.471Z,59580.0
2022-12-22T12:50:01.239Z,58815.7
2022-12-22T12:51:01.100Z,58051.5
2022-12-22T12:52:01.099Z,57030.1
2022-12-22T12:53:01.261Z,56008.7
2022-12-22T12:54:01.392Z,54987.3
2022-12-22T12:57:01.133Z,54826.1
2022-12-22T12:58:01.113Z,54665.0
2022-12-22T12:59:02.175Z,54503.9
2022-12-22T13:00:01.190Z,53983.0
2022-12-22T13:01:01.282Z,53462.1
2022-12-22T13:02:01.678Z,54024.2
2022-12-22T13:03:01.282Z,54586.3
2022-12-22T13:04:04.444Z,55148.3
2022-12-22T13:05:01.241Z,54695.5
2022-12-22T13:06:01.236Z,54242.7
2022-12-22T13:07:01.169Z,54416.5
2022-12-22T13:08:01.123Z,54590.3
2022-12-22T13:30:02.190Z,26555.0
2022-12-22T13:32:01.008Z,24944.3
2022-12-22T13:33:00.952Z,24139.0
2022-12-22T13:34:00.920Z,23655.8
